sensor_id;sensor_type;location;lat;lon;timestamp;temperature;humidity
21169;DHT22;10742;51.816;8.662;2023-11-19T00:01:20;12.80;99.90
21169;DHT22;10742;51.816;8.662;2023-11-19T00:04:41;12.80;99.90
21169;DHT22;10742;51.816;8.662;2023-11-19T00:08:04;12.90;99.90
21169;DHT22;10742;51.816;8.662;2023-11-19T00:11:26;12.90;99.90
21169;DHT22;10742;51.816;8.662;2023-11-19T00:14:48;12.90;99.90
21169;DHT22;10742;51.816;8.662;2023-11-19T00:18:09;13.00;99.90
21169;DHT22;10742;51.816;8.662;2023-11-19T00:21:30;13.00;99.90
21169;DHT22;10742;51.816;8.662;2023-11-19T00:24:51;13.10;99.90
21169;DHT22;10742;51.816;8.662;2023-11-19T00:28:12;13.10;99.90
21169;DHT22;10742;51.816;8.662;2023-11-19T00:31:33;13.20;99.90
21169;DHT22;10742;51.816;8.662;2023-11-19T00:34:55;13.30;99.90
21169;DHT22;10742;51.816;8.662;2023-11-19T00:38:16;13.30;99.90
21169;DHT22;10742;51.816;8.662;2023-11-19T00:41:37;13.30;99.90
21169;DHT22;10742;51.816;8.662;2023-11-19T00:44:58;13.40;99.90
21169;DHT22;10742;51.816;8.662;2023-11-19T00:48:19;13.40;99.90
21169;DHT22;10742;51.816;8.662;2023-11-19T00:51:40;13.50;99.90
21169;DHT22;10742;51.816;8.662;2023-11-19T00:55:02;13.50;99.90
21169;DHT22;10742;51.816;8.662;2023-11-19T00:58:24;13.50;99.90
21169;DHT22;10742;51.816;8.662;2023-11-19T01:01:45;13.60;99.90
21169;DHT22;10742;51.816;8.662;2023-11-19T01:05:08;13.60;99.90
21169;DHT22;10742;51.816;8.662;2023-11-19T01:08:29;13.60;99.90
21169;DHT22;10742;51.816;8.662;2023-11-19T01:11:50;13.60;99.90
21169;DHT22;10742;51.816;8.662;2023-11-19T01:15:12;13.70;99.90
21169;DHT22;10742;51.816;8.662;2023-11-19T01:18:34;13.70;99.90
21169;DHT22;10742;51.816;8.662;2023-11-19T01:21:55;13.70;99.90
21169;DHT22;10742;51.816;8.662;2023-11-19T01:25:17;13.80;99.90
21169;DHT22;10742;51.816;8.662;2023-11-19T01:28:41;13.80;99.90
21169;DHT22;10742;51.816;8.662;2023-11-19T01:32:08;13.80;99.90
21169;DHT22;10742;51.816;8.662;2023-11-19T01:35:30;13.80;99.90
21169;DHT22;10742;51.816;8.662;2023-11-19T01:38:51;13.80;99.90
21169;DHT22;10742;51.816;8.662;2023-11-19T01:42:12;13.80;99.90
21169;DHT22;10742;51.816;8.662;2023-11-19T01:45:34;13.90;99.90
21169;DHT22;10742;51.816;8.662;2023-11-19T01:48:57;13.90;99.90
21169;DHT22;10742;51.816;8.662;2023-11-19T01:52:19;13.90;99.90
21169;DHT22;10742;51.816;8.662;2023-11-19T01:55:41;13.90;99.90
21169;DHT22;10742;51.816;8.662;2023-11-19T01:59:03;14.00;99.90
21169;DHT22;10742;51.816;8.662;2023-11-19T02:02:25;14.00;99.90
21169;DHT22;10742;51.816;8.662;2023-11-19T02:05:48;14.00;99.90
21169;DHT22;10742;51.816;8.662;2023-11-19T02:09:10;14.00;99.90
21169;DHT22;10742;51.816;8.662;2023-11-19T02:12:31;14.10;99.90
21169;DHT22;10742;51.816;8.662;2023-11-19T02:15:56;14.10;99.90
21169;DHT22;10742;51.816;8.662;2023-11-19T02:19:21;14.10;99.90
21169;DHT22;10742;51.816;8.662;2023-11-19T02:22:43;14.10;99.90
21169;DHT22;10742;51.816;8.662;2023-11-19T02:26:18;14.10;99.90
21169;DHT22;10742;51.816;8.662;2023-11-19T02:29:43;14.20;99.90
21169;DHT22;10742;51.816;8.662;2023-11-19T02:33:05;14.20;99.90
21169;DHT22;10742;51.816;8.662;2023-11-19T02:36:26;14.20;99.90
21169;DHT22;10742;51.816;8.662;2023-11-19T02:39:48;14.30;99.90
21169;DHT22;10742;51.816;8.662;2023-11-19T02:43:09;14.30;99.90
21169;DHT22;10742;51.816;8.662;2023-11-19T02:46:31;14.30;99.90
21169;DHT22;10742;51.816;8.662;2023-11-19T02:49:53;14.30;99.90
21169;DHT22;10742;51.816;8.662;2023-11-19T02:53:14;14.40;99.90
21169;DHT22;10742;51.816;8.662;2023-11-19T02:56:42;14.40;99.90
21169;DHT22;10742;51.816;8.662;2023-11-19T03:00:04;14.40;99.90
21169;DHT22;10742;51.816;8.662;2023-11-19T03:03:33;14.40;99.90
21169;DHT22;10742;51.816;8.662;2023-11-19T03:06:59;14.40;99.90
21169;DHT22;10742;51.816;8.662;2023-11-19T03:10:21;14.50;99.90
21169;DHT22;10742;51.816;8.662;2023-11-19T03:13:43;14.50;99.90
21169;DHT22;10742;51.816;8.662;2023-11-19T03:17:04;14.50;99.90
21169;DHT22;10742;51.816;8.662;2023-11-19T03:20:26;14.60;99.90
21169;DHT22;10742;51.816;8.662;2023-11-19T03:23:48;14.60;99.90
21169;DHT22;10742;51.816;8.662;2023-11-19T03:27:10;14.60;99.90
21169;DHT22;10742;51.816;8.662;2023-11-19T03:30:32;14.70;99.90
21169;DHT22;10742;51.816;8.662;2023-11-19T03:33:53;14.70;99.90
21169;DHT22;10742;51.816;8.662;2023-11-19T03:37:16;14.80;99.90
21169;DHT22;10742;51.816;8.662;2023-11-19T03:40:38;14.80;99.90
21169;DHT22;10742;51.816;8.662;2023-11-19T03:44:00;14.80;99.90
21169;DHT22;10742;51.816;8.662;2023-11-19T03:47:21;14.90;99.90
21169;DHT22;10742;51.816;8.662;2023-11-19T03:50:42;14.90;99.90
21169;DHT22;10742;51.816;8.662;2023-11-19T03:54:04;14.90;99.90
21169;DHT22;10742;51.816;8.662;2023-11-19T03:57:27;15.00;99.90
21169;DHT22;10742;51.816;8.662;2023-11-19T04:00:49;15.00;99.90
21169;DHT22;10742;51.816;8.662;2023-11-19T04:04:10;15.00;99.90
21169;DHT22;10742;51.816;8.662;2023-11-19T04:07:32;15.10;99.90
21169;DHT22;10742;51.816;8.662;2023-11-19T04:10:53;15.10;99.90
21169;DHT22;10742;51.816;8.662;2023-11-19T04:14:14;15.10;99.90
21169;DHT22;10742;51.816;8.662;2023-11-19T04:17:35;15.10;99.90
21169;DHT22;10742;51.816;8.662;2023-11-19T04:20:56;15.20;99.90
21169;DHT22;10742;51.816;8.662;2023-11-19T04:24:17;15.20;99.90
21169;DHT22;10742;51.816;8.662;2023-11-19T04:27:39;15.20;99.90
21169;DHT22;10742;51.816;8.662;2023-11-19T04:31:02;15.20;99.90
21169;DHT22;10742;51.816;8.662;2023-11-19T04:34:24;15.20;99.90
21169;DHT22;10742;51.816;8.662;2023-11-19T04:37:46;15.20;99.90
21169;DHT22;10742;51.816;8.662;2023-11-19T04:41:08;15.30;99.90
21169;DHT22;10742;51.816;8.662;2023-11-19T04:44:30;15.30;99.90
21169;DHT22;10742;51.816;8.662;2023-11-19T04:47:52;15.30;99.90
21169;DHT22;10742;51.816;8.662;2023-11-19T04:51:13;15.30;99.90
21169;DHT22;10742;51.816;8.662;2023-11-19T04:54:34;15.30;99.90
21169;DHT22;10742;51.816;8.662;2023-11-19T04:57:55;15.30;99.90
21169;DHT22;10742;51.816;8.662;2023-11-19T05:01:17;15.30;99.90
21169;DHT22;10742;51.816;8.662;2023-11-19T05:04:42;15.30;99.90
21169;DHT22;10742;51.816;8.662;2023-11-19T05:08:04;15.40;99.90
21169;DHT22;10742;51.816;8.662;2023-11-19T05:11:26;15.40;99.90
21169;DHT22;10742;51.816;8.662;2023-11-19T05:14:49;15.40;99.90
21169;DHT22;10742;51.816;8.662;2023-11-19T05:18:11;15.40;99.90
21169;DHT22;10742;51.816;8.662;2023-11-19T05:21:32;15.40;99.90
21169;DHT22;10742;51.816;8.662;2023-11-19T05:24:54;15.40;99.90
21169;DHT22;10742;51.816;8.662;2023-11-19T05:28:16;15.40;99.90
21169;DHT22;10742;51.816;8.662;2023-11-19T05:31:38;15.50;99.90
21169;DHT22;10742;51.816;8.662;2023-11-19T05:34:59;15.50;99.90
21169;DHT22;10742;51.816;8.662;2023-11-19T05:38:20;15.50;99.90
21169;DHT22;10742;51.816;8.662;2023-11-19T05:41:42;15.50;99.90
21169;DHT22;10742;51.816;8.662;2023-11-19T05:45:04;15.50;99.90
21169;DHT22;10742;51.816;8.662;2023-11-19T05:48:26;15.50;99.90
21169;DHT22;10742;51.816;8.662;2023-11-19T05:51:48;15.50;99.90
21169;DHT22;10742;51.816;8.662;2023-11-19T05:55:09;15.50;99.90
21169;DHT22;10742;51.816;8.662;2023-11-19T05:58:31;15.50;99.90
21169;DHT22;10742;51.816;8.662;2023-11-19T06:01:53;15.50;99.90
21169;DHT22;10742;51.816;8.662;2023-11-19T06:05:14;15.50;99.90
21169;DHT22;10742;51.816;8.662;2023-11-19T06:08:35;15.50;99.90
21169;DHT22;10742;51.816;8.662;2023-11-19T06:11:57;15.50;99.90
21169;DHT22;10742;51.816;8.662;2023-11-19T06:15:18;15.50;99.90
21169;DHT22;10742;51.816;8.662;2023-11-19T06:18:39;15.50;99.90
21169;DHT22;10742;51.816;8.662;2023-11-19T06:22:02;15.50;99.90
21169;DHT22;10742;51.816;8.662;2023-11-19T06:25:23;15.50;99.90
21169;DHT22;10742;51.816;8.662;2023-11-19T06:28:47;15.40;99.90
21169;DHT22;10742;51.816;8.662;2023-11-19T06:32:08;15.40;99.90
21169;DHT22;10742;51.816;8.662;2023-11-19T06:35:32;15.40;99.90
21169;DHT22;10742;51.816;8.662;2023-11-19T06:38:57;15.40;99.90
21169;DHT22;10742;51.816;8.662;2023-11-19T06:42:18;15.40;99.90
21169;DHT22;10742;51.816;8.662;2023-11-19T06:45:39;15.30;99.90
21169;DHT22;10742;51.816;8.662;2023-11-19T06:49:00;15.30;99.90
21169;DHT22;10742;51.816;8.662;2023-11-19T06:52:22;15.20;99.90
21169;DHT22;10742;51.816;8.662;2023-11-19T06:55:43;15.20;99.90
21169;DHT22;10742;51.816;8.662;2023-11-19T06:59:05;15.20;99.90
21169;DHT22;10742;51.816;8.662;2023-11-19T07:02:26;15.20;99.90
21169;DHT22;10742;51.816;8.662;2023-11-19T07:05:47;15.20;99.90
21169;DHT22;10742;51.816;8.662;2023-11-19T07:09:08;15.20;99.90
21169;DHT22;10742;51.816;8.662;2023-11-19T07:12:32;15.10;99.90
21169;DHT22;10742;51.816;8.662;2023-11-19T07:15:56;15.10;99.90
21169;DHT22;10742;51.816;8.662;2023-11-19T07:19:17;15.10;99.90
21169;DHT22;10742;51.816;8.662;2023-11-19T07:22:38;15.10;99.90
21169;DHT22;10742;51.816;8.662;2023-11-19T07:25:59;15.20;99.90
21169;DHT22;10742;51.816;8.662;2023-11-19T07:29:20;15.20;99.90
21169;DHT22;10742;51.816;8.662;2023-11-19T07:32:47;15.20;99.90
21169;DHT22;10742;51.816;8.662;2023-11-19T07:36:09;15.10;99.90
21169;DHT22;10742;51.816;8.662;2023-11-19T07:39:31;15.10;99.90
21169;DHT22;10742;51.816;8.662;2023-11-19T07:42:53;15.10;99.90
21169;DHT22;10742;51.816;8.662;2023-11-19T07:46:14;15.10;99.90
21169;DHT22;10742;51.816;8.662;2023-11-19T07:49:36;15.10;99.90
21169;DHT22;10742;51.816;8.662;2023-11-19T07:52:57;15.10;99.90
21169;DHT22;10742;51.816;8.662;2023-11-19T07:56:18;15.10;99.90
21169;DHT22;10742;51.816;8.662;2023-11-19T07:59:38;15.20;99.90
21169;DHT22;10742;51.816;8.662;2023-11-19T08:03:00;15.20;99.90
21169;DHT22;10742;51.816;8.662;2023-11-19T08:06:22;15.20;99.90
21169;DHT22;10742;51.816;8.662;2023-11-19T08:09:43;15.30;99.90
21169;DHT22;10742;51.816;8.662;2023-11-19T08:13:05;15.30;99.90
21169;DHT22;10742;51.816;8.662;2023-11-19T08:16:26;15.40;99.90
21169;DHT22;10742;51.816;8.662;2023-11-19T08:19:47;15.30;99.90
21169;DHT22;10742;51.816;8.662;2023-11-19T08:23:09;15.40;99.90
21169;DHT22;10742;51.816;8.662;2023-11-19T08:26:30;15.40;99.90
21169;DHT22;10742;51.816;8.662;2023-11-19T08:29:51;15.40;99.90
21169;DHT22;10742;51.816;8.662;2023-11-19T08:33:13;15.40;99.90
21169;DHT22;10742;51.816;8.662;2023-11-19T08:36:37;15.40;99.90
21169;DHT22;10742;51.816;8.662;2023-11-19T08:39:58;15.50;99.90
21169;DHT22;10742;51.816;8.662;2023-11-19T08:43:20;15.50;99.90
21169;DHT22;10742;51.816;8.662;2023-11-19T08:46:49;15.50;99.90
21169;DHT22;10742;51.816;8.662;2023-11-19T08:50:11;15.50;99.90
21169;DHT22;10742;51.816;8.662;2023-11-19T08:53:32;15.60;99.90
21169;DHT22;10742;51.816;8.662;2023-11-19T08:56:53;15.60;99.90
21169;DHT22;10742;51.816;8.662;2023-11-19T09:00:15;15.60;99.90
21169;DHT22;10742;51.816;8.662;2023-11-19T09:03:36;15.70;99.90
21169;DHT22;10742;51.816;8.662;2023-11-19T09:06:58;15.70;99.90
21169;DHT22;10742;51.816;8.662;2023-11-19T09:10:19;15.80;99.90
21169;DHT22;10742;51.816;8.662;2023-11-19T09:13:40;15.80;99.90
21169;DHT22;10742;51.816;8.662;2023-11-19T09:17:01;15.80;99.90
21169;DHT22;10742;51.816;8.662;2023-11-19T09:20:22;15.90;99.90
21169;DHT22;10742;51.816;8.662;2023-11-19T09:23:43;15.90;99.90
21169;DHT22;10742;51.816;8.662;2023-11-19T09:27:05;15.90;99.90
21169;DHT22;10742;51.816;8.662;2023-11-19T09:30:27;15.90;99.90
21169;DHT22;10742;51.816;8.662;2023-11-19T09:33:48;15.90;99.90
21169;DHT22;10742;51.816;8.662;2023-11-19T09:37:09;15.90;99.90
21169;DHT22;10742;51.816;8.662;2023-11-19T09:40:33;15.90;99.90
21169;DHT22;10742;51.816;8.662;2023-11-19T09:43:54;16.00;99.90
21169;DHT22;10742;51.816;8.662;2023-11-19T09:47:17;16.00;99.90
21169;DHT22;10742;51.816;8.662;2023-11-19T09:50:40;16.00;99.90
21169;DHT22;10742;51.816;8.662;2023-11-19T09:54:02;16.00;99.90
21169;DHT22;10742;51.816;8.662;2023-11-19T09:57:23;16.00;99.90
21169;DHT22;10742;51.816;8.662;2023-11-19T10:00:44;16.00;99.90
21169;DHT22;10742;51.816;8.662;2023-11-19T10:04:07;16.00;99.90
21169;DHT22;10742;51.816;8.662;2023-11-19T10:07:29;16.00;99.90
21169;DHT22;10742;51.816;8.662;2023-11-19T10:10:50;16.00;99.90
21169;DHT22;10742;51.816;8.662;2023-11-19T10:14:14;16.00;99.90
21169;DHT22;10742;51.816;8.662;2023-11-19T10:17:35;16.10;99.90
21169;DHT22;10742;51.816;8.662;2023-11-19T10:20:56;16.10;99.90
21169;DHT22;10742;51.816;8.662;2023-11-19T10:24:31;16.10;99.90
21169;DHT22;10742;51.816;8.662;2023-11-19T10:27:54;16.10;99.90
21169;DHT22;10742;51.816;8.662;2023-11-19T10:31:16;16.20;99.90
21169;DHT22;10742;51.816;8.662;2023-11-19T10:34:37;16.20;99.90
21169;DHT22;10742;51.816;8.662;2023-11-19T10:38:13;16.30;99.90
21169;DHT22;10742;51.816;8.662;2023-11-19T10:41:34;16.30;99.90
21169;DHT22;10742;51.816;8.662;2023-11-19T10:44:56;16.40;99.90
21169;DHT22;10742;51.816;8.662;2023-11-19T10:48:18;16.50;99.90
21169;DHT22;10742;51.816;8.662;2023-11-19T10:51:45;16.40;99.90
21169;DHT22;10742;51.816;8.662;2023-11-19T10:55:09;16.40;99.90
21169;DHT22;10742;51.816;8.662;2023-11-19T10:58:32;16.50;99.90
21169;DHT22;10742;51.816;8.662;2023-11-19T11:01:54;16.50;99.90
21169;DHT22;10742;51.816;8.662;2023-11-19T11:05:18;16.50;99.90
21169;DHT22;10742;51.816;8.662;2023-11-19T11:08:40;16.50;99.90
21169;DHT22;10742;51.816;8.662;2023-11-19T11:12:02;16.50;99.90
21169;DHT22;10742;51.816;8.662;2023-11-19T11:15:27;16.50;99.90
21169;DHT22;10742;51.816;8.662;2023-11-19T11:18:50;16.50;99.90
21169;DHT22;10742;51.816;8.662;2023-11-19T11:22:14;16.50;99.90
21169;DHT22;10742;51.816;8.662;2023-11-19T11:25:47;16.50;99.90
21169;DHT22;10742;51.816;8.662;2023-11-19T11:33:09;16.60;99.90
21169;DHT22;10742;51.816;8.662;2023-11-19T11:36:53;16.60;99.90
21169;DHT22;10742;51.816;8.662;2023-11-19T11:40:19;16.50;99.90
21169;DHT22;10742;51.816;8.662;2023-11-19T11:43:47;16.60;99.90
21169;DHT22;10742;51.816;8.662;2023-11-19T11:47:09;16.60;99.90
21169;DHT22;10742;51.816;8.662;2023-11-19T11:50:31;16.50;99.90
21169;DHT22;10742;51.816;8.662;2023-11-19T11:53:54;16.50;99.90
21169;DHT22;10742;51.816;8.662;2023-11-19T11:57:16;16.50;99.90
21169;DHT22;10742;51.816;8.662;2023-11-19T12:00:40;16.50;99.90
21169;DHT22;10742;51.816;8.662;2023-11-19T12:04:02;16.50;99.90
21169;DHT22;10742;51.816;8.662;2023-11-19T12:07:25;16.50;99.90
21169;DHT22;10742;51.816;8.662;2023-11-19T12:10:51;16.60;99.90
21169;DHT22;10742;51.816;8.662;2023-11-19T12:14:13;16.60;99.90
21169;DHT22;10742;51.816;8.662;2023-11-19T12:20:56;16.60;99.90
21169;DHT22;10742;51.816;8.662;2023-11-19T12:24:19;16.60;99.90
21169;DHT22;10742;51.816;8.662;2023-11-19T12:27:50;16.70;99.90
21169;DHT22;10742;51.816;8.662;2023-11-19T12:31:11;16.70;99.90
21169;DHT22;10742;51.816;8.662;2023-11-19T12:34:32;16.70;99.90
21169;DHT22;10742;51.816;8.662;2023-11-19T12:37:55;16.80;99.90
21169;DHT22;10742;51.816;8.662;2023-11-19T12:41:16;16.80;99.90
21169;DHT22;10742;51.816;8.662;2023-11-19T12:44:54;16.90;99.90
21169;DHT22;10742;51.816;8.662;2023-11-19T12:48:17;16.90;99.90
21169;DHT22;10742;51.816;8.662;2023-11-19T12:51:38;17.00;99.90
21169;DHT22;10742;51.816;8.662;2023-11-19T12:54:59;17.10;99.90
21169;DHT22;10742;51.816;8.662;2023-11-19T12:58:35;17.10;99.90
21169;DHT22;10742;51.816;8.662;2023-11-19T13:01:58;17.10;99.90
21169;DHT22;10742;51.816;8.662;2023-11-19T13:05:32;17.20;99.90
21169;DHT22;10742;51.816;8.662;2023-11-19T13:08:54;17.10;99.90
21169;DHT22;10742;51.816;8.662;2023-11-19T13:12:16;17.10;99.90
21169;DHT22;10742;51.816;8.662;2023-11-19T13:15:38;17.10;99.90
21169;DHT22;10742;51.816;8.662;2023-11-19T13:19:00;17.10;99.90
21169;DHT22;10742;51.816;8.662;2023-11-19T13:22:22;17.00;99.90
21169;DHT22;10742;51.816;8.662;2023-11-19T13:25:43;17.00;99.90
21169;DHT22;10742;51.816;8.662;2023-11-19T13:29:06;16.90;99.90
21169;DHT22;10742;51.816;8.662;2023-11-19T13:32:27;16.80;99.90
21169;DHT22;10742;51.816;8.662;2023-11-19T13:35:49;16.80;99.90
21169;DHT22;10742;51.816;8.662;2023-11-19T13:39:10;16.80;99.90
21169;DHT22;10742;51.816;8.662;2023-11-19T13:42:33;16.70;99.90
21169;DHT22;10742;51.816;8.662;2023-11-19T13:45:55;16.70;99.90
21169;DHT22;10742;51.816;8.662;2023-11-19T13:49:17;16.70;99.90
21169;DHT22;10742;51.816;8.662;2023-11-19T13:52:40;16.70;99.90
21169;DHT22;10742;51.816;8.662;2023-11-19T13:56:01;16.70;99.90
21169;DHT22;10742;51.816;8.662;2023-11-19T13:59:22;16.70;99.90
21169;DHT22;10742;51.816;8.662;2023-11-19T14:02:45;16.60;99.90
21169;DHT22;10742;51.816;8.662;2023-11-19T14:06:06;16.60;99.90
21169;DHT22;10742;51.816;8.662;2023-11-19T14:09:29;16.60;99.90
21169;DHT22;10742;51.816;8.662;2023-11-19T14:12:50;16.60;99.90
21169;DHT22;10742;51.816;8.662;2023-11-19T14:16:11;16.50;99.90
21169;DHT22;10742;51.816;8.662;2023-11-19T14:19:33;16.50;99.90
21169;DHT22;10742;51.816;8.662;2023-11-19T14:22:55;16.50;99.90
21169;DHT22;10742;51.816;8.662;2023-11-19T14:26:16;16.50;99.90
21169;DHT22;10742;51.816;8.662;2023-11-19T14:29:38;16.50;99.90
21169;DHT22;10742;51.816;8.662;2023-11-19T14:33:03;16.40;99.90
21169;DHT22;10742;51.816;8.662;2023-11-19T14:36:26;16.40;99.90
21169;DHT22;10742;51.816;8.662;2023-11-19T14:39:48;16.40;99.90
21169;DHT22;10742;51.816;8.662;2023-11-19T14:43:11;16.40;99.90
21169;DHT22;10742;51.816;8.662;2023-11-19T14:46:33;16.30;99.80
21169;DHT22;10742;51.816;8.662;2023-11-19T14:49:54;16.30;99.90
21169;DHT22;10742;51.816;8.662;2023-11-19T14:53:15;16.30;99.90
21169;DHT22;10742;51.816;8.662;2023-11-19T14:56:37;16.20;99.90
21169;DHT22;10742;51.816;8.662;2023-11-19T14:59:59;16.20;99.90
21169;DHT22;10742;51.816;8.662;2023-11-19T15:03:22;16.20;99.90
21169;DHT22;10742;51.816;8.662;2023-11-19T15:06:43;16.20;99.90
21169;DHT22;10742;51.816;8.662;2023-11-19T15:10:05;16.20;99.90
21169;DHT22;10742;51.816;8.662;2023-11-19T15:13:31;16.10;99.90
21169;DHT22;10742;51.816;8.662;2023-11-19T15:16:53;16.10;99.90
21169;DHT22;10742;51.816;8.662;2023-11-19T15:20:14;16.10;99.90
21169;DHT22;10742;51.816;8.662;2023-11-19T15:23:39;16.10;99.90
21169;DHT22;10742;51.816;8.662;2023-11-19T15:27:01;16.10;99.90
21169;DHT22;10742;51.816;8.662;2023-11-19T15:30:25;16.00;99.90
21169;DHT22;10742;51.816;8.662;2023-11-19T15:33:47;15.90;99.90
21169;DHT22;10742;51.816;8.662;2023-11-19T15:37:08;15.90;99.90
21169;DHT22;10742;51.816;8.662;2023-11-19T15:40:29;15.90;99.90
21169;DHT22;10742;51.816;8.662;2023-11-19T15:43:51;15.90;99.90
21169;DHT22;10742;51.816;8.662;2023-11-19T15:47:13;15.90;99.90
21169;DHT22;10742;51.816;8.662;2023-11-19T15:50:35;15.90;99.90
21169;DHT22;10742;51.816;8.662;2023-11-19T15:53:56;15.90;99.90
21169;DHT22;10742;51.816;8.662;2023-11-19T15:57:17;15.90;99.90
21169;DHT22;10742;51.816;8.662;2023-11-19T16:00:38;15.90;99.90
21169;DHT22;10742;51.816;8.662;2023-11-19T16:04:01;15.90;99.90
21169;DHT22;10742;51.816;8.662;2023-11-19T16:07:23;15.90;99.90
21169;DHT22;10742;51.816;8.662;2023-11-19T16:10:44;15.90;99.90
21169;DHT22;10742;51.816;8.662;2023-11-19T16:14:08;15.90;99.90
21169;DHT22;10742;51.816;8.662;2023-11-19T16:17:29;15.90;99.90
21169;DHT22;10742;51.816;8.662;2023-11-19T16:20:50;15.90;99.90
21169;DHT22;10742;51.816;8.662;2023-11-19T16:24:11;15.90;99.90
21169;DHT22;10742;51.816;8.662;2023-11-19T16:27:32;15.90;99.90
21169;DHT22;10742;51.816;8.662;2023-11-19T16:30:54;15.90;99.90
21169;DHT22;10742;51.816;8.662;2023-11-19T16:34:15;15.90;99.90
21169;DHT22;10742;51.816;8.662;2023-11-19T16:37:37;16.00;99.90
21169;DHT22;10742;51.816;8.662;2023-11-19T16:41:00;16.00;99.90
21169;DHT22;10742;51.816;8.662;2023-11-19T16:44:21;16.00;99.90
21169;DHT22;10742;51.816;8.662;2023-11-19T16:47:45;16.00;99.90
21169;DHT22;10742;51.816;8.662;2023-11-19T16:51:13;16.00;99.90
21169;DHT22;10742;51.816;8.662;2023-11-19T16:54:37;16.00;99.90
21169;DHT22;10742;51.816;8.662;2023-11-19T16:57:58;16.00;99.90
21169;DHT22;10742;51.816;8.662;2023-11-19T17:01:20;16.00;99.90
21169;DHT22;10742;51.816;8.662;2023-11-19T17:04:41;16.00;99.90
21169;DHT22;10742;51.816;8.662;2023-11-19T17:08:02;16.00;99.90
21169;DHT22;10742;51.816;8.662;2023-11-19T17:11:24;15.90;99.90
21169;DHT22;10742;51.816;8.662;2023-11-19T17:14:46;15.90;99.90
21169;DHT22;10742;51.816;8.662;2023-11-19T17:18:07;15.90;99.90
21169;DHT22;10742;51.816;8.662;2023-11-19T17:21:28;15.90;99.90
21169;DHT22;10742;51.816;8.662;2023-11-19T17:24:49;15.90;99.90
21169;DHT22;10742;51.816;8.662;2023-11-19T17:28:11;16.00;99.90
21169;DHT22;10742;51.816;8.662;2023-11-19T17:31:33;16.00;99.90
21169;DHT22;10742;51.816;8.662;2023-11-19T17:34:54;16.10;99.90
21169;DHT22;10742;51.816;8.662;2023-11-19T17:38:15;16.10;99.90
21169;DHT22;10742;51.816;8.662;2023-11-19T17:41:39;16.00;99.90
21169;DHT22;10742;51.816;8.662;2023-11-19T17:45:00;16.00;99.90
21169;DHT22;10742;51.816;8.662;2023-11-19T17:48:22;16.00;99.90
21169;DHT22;10742;51.816;8.662;2023-11-19T17:51:43;15.90;99.90
21169;DHT22;10742;51.816;8.662;2023-11-19T17:55:07;15.90;99.90
21169;DHT22;10742;51.816;8.662;2023-11-19T17:58:34;15.90;99.90
21169;DHT22;10742;51.816;8.662;2023-11-19T18:01:55;15.80;99.90
21169;DHT22;10742;51.816;8.662;2023-11-19T18:05:20;15.80;99.90
21169;DHT22;10742;51.816;8.662;2023-11-19T18:08:41;15.80;99.90
21169;DHT22;10742;51.816;8.662;2023-11-19T18:12:03;15.70;99.90
21169;DHT22;10742;51.816;8.662;2023-11-19T18:15:25;15.70;99.90
21169;DHT22;10742;51.816;8.662;2023-11-19T18:18:47;15.70;99.90
21169;DHT22;10742;51.816;8.662;2023-11-19T18:22:07;15.60;99.90
21169;DHT22;10742;51.816;8.662;2023-11-19T18:25:29;15.60;99.90
21169;DHT22;10742;51.816;8.662;2023-11-19T18:28:50;15.50;99.90
21169;DHT22;10742;51.816;8.662;2023-11-19T18:32:11;15.50;99.90
21169;DHT22;10742;51.816;8.662;2023-11-19T18:35:33;15.50;99.90
21169;DHT22;10742;51.816;8.662;2023-11-19T18:38:54;15.50;99.90
21169;DHT22;10742;51.816;8.662;2023-11-19T18:42:18;15.50;99.90
21169;DHT22;10742;51.816;8.662;2023-11-19T18:45:40;15.40;99.90
21169;DHT22;10742;51.816;8.662;2023-11-19T18:49:01;15.40;99.90
21169;DHT22;10742;51.816;8.662;2023-11-19T18:52:23;15.40;99.90
21169;DHT22;10742;51.816;8.662;2023-11-19T18:55:44;15.40;99.90
21169;DHT22;10742;51.816;8.662;2023-11-19T18:59:05;15.30;99.90
21169;DHT22;10742;51.816;8.662;2023-11-19T19:02:33;15.30;99.90
21169;DHT22;10742;51.816;8.662;2023-11-19T19:05:55;15.30;99.90
21169;DHT22;10742;51.816;8.662;2023-11-19T19:09:16;15.30;99.90
21169;DHT22;10742;51.816;8.662;2023-11-19T19:12:40;15.30;99.90
21169;DHT22;10742;51.816;8.662;2023-11-19T19:16:07;15.20;99.90
21169;DHT22;10742;51.816;8.662;2023-11-19T19:19:28;15.20;99.90
21169;DHT22;10742;51.816;8.662;2023-11-19T19:22:50;15.20;99.90
21169;DHT22;10742;51.816;8.662;2023-11-19T19:26:11;15.20;99.90
21169;DHT22;10742;51.816;8.662;2023-11-19T19:29:33;15.20;99.90
21169;DHT22;10742;51.816;8.662;2023-11-19T19:32:53;15.20;99.90
21169;DHT22;10742;51.816;8.662;2023-11-19T19:36:15;15.20;99.90
21169;DHT22;10742;51.816;8.662;2023-11-19T19:39:36;15.10;99.90
21169;DHT22;10742;51.816;8.662;2023-11-19T19:42:59;15.10;99.90
21169;DHT22;10742;51.816;8.662;2023-11-19T19:46:21;15.10;99.90
21169;DHT22;10742;51.816;8.662;2023-11-19T19:49:42;15.10;99.90
21169;DHT22;10742;51.816;8.662;2023-11-19T19:53:04;15.10;99.90
21169;DHT22;10742;51.816;8.662;2023-11-19T19:56:25;15.10;99.90
21169;DHT22;10742;51.816;8.662;2023-11-19T19:59:46;15.00;99.90
21169;DHT22;10742;51.816;8.662;2023-11-19T20:03:07;15.00;99.90
21169;DHT22;10742;51.816;8.662;2023-11-19T20:06:36;15.00;99.90
21169;DHT22;10742;51.816;8.662;2023-11-19T20:09:58;15.00;99.90
21169;DHT22;10742;51.816;8.662;2023-11-19T20:13:19;15.00;99.90
21169;DHT22;10742;51.816;8.662;2023-11-19T20:16:44;15.00;99.90
21169;DHT22;10742;51.816;8.662;2023-11-19T20:20:06;14.90;99.90
21169;DHT22;10742;51.816;8.662;2023-11-19T20:23:31;14.90;99.90
21169;DHT22;10742;51.816;8.662;2023-11-19T20:26:53;14.90;99.90
21169;DHT22;10742;51.816;8.662;2023-11-19T20:30:14;14.80;99.90
21169;DHT22;10742;51.816;8.662;2023-11-19T20:33:39;14.80;99.90
21169;DHT22;10742;51.816;8.662;2023-11-19T20:37:00;14.90;99.90
21169;DHT22;10742;51.816;8.662;2023-11-19T20:40:21;14.80;99.90
21169;DHT22;10742;51.816;8.662;2023-11-19T20:43:42;14.80;99.90
21169;DHT22;10742;51.816;8.662;2023-11-19T20:47:04;14.80;99.90
21169;DHT22;10742;51.816;8.662;2023-11-19T20:50:26;14.80;99.90
21169;DHT22;10742;51.816;8.662;2023-11-19T20:53:48;14.80;99.90
21169;DHT22;10742;51.816;8.662;2023-11-19T20:57:12;14.80;99.90
21169;DHT22;10742;51.816;8.662;2023-11-19T21:00:33;14.80;99.90
21169;DHT22;10742;51.816;8.662;2023-11-19T21:03:55;14.80;99.90
21169;DHT22;10742;51.816;8.662;2023-11-19T21:07:17;14.80;99.90
21169;DHT22;10742;51.816;8.662;2023-11-19T21:10:38;14.80;99.90
21169;DHT22;10742;51.816;8.662;2023-11-19T21:14:00;14.80;99.90
21169;DHT22;10742;51.816;8.662;2023-11-19T21:17:21;14.80;99.90
21169;DHT22;10742;51.816;8.662;2023-11-19T21:20:46;14.90;99.90
21169;DHT22;10742;51.816;8.662;2023-11-19T21:24:07;14.80;99.90